sensor_id;sensor_type;location;lat;lon;timestamp;P1;durP1;ratioP1;P2;durP2;ratioP2
57107;SDS011;42987;52.916;6.542;2023-12-29T00:02:05;12.48;;;3.50;;
57107;SDS011;42987;52.916;6.542;2023-12-29T00:04:30;9.50;;;2.83;;
57107;SDS011;42987;52.916;6.542;2023-12-29T00:06:59;10.90;;;3.33;;
57107;SDS011;42987;52.916;6.542;2023-12-29T00:09:24;12.35;;;2.90;;
57107;SDS011;42987;52.916;6.542;2023-12-29T00:11:51;12.77;;;3.25;;
57107;SDS011;42987;52.916;6.542;2023-12-29T00:14:17;12.13;;;2.97;;
57107;SDS011;42987;52.916;6.542;2023-12-29T00:16:43;13.52;;;2.92;;
57107;SDS011;42987;52.916;6.542;2023-12-29T00:19:09;10.23;;;2.47;;
57107;SDS011;42987;52.916;6.542;2023-12-29T00:21:36;10.95;;;2.70;;
57107;SDS011;42987;52.916;6.542;2023-12-29T00:24:02;10.20;;;2.95;;
57107;SDS011;42987;52.916;6.542;2023-12-29T00:26:29;11.20;;;2.95;;
57107;SDS011;42987;52.916;6.542;2023-12-29T00:28:54;15.73;;;3.08;;
57107;SDS011;42987;52.916;6.542;2023-12-29T00:31:23;9.75;;;2.63;;
57107;SDS011;42987;52.916;6.542;2023-12-29T00:33:49;12.77;;;2.80;;
57107;SDS011;42987;52.916;6.542;2023-12-29T00:36:17;9.18;;;2.28;;
57107;SDS011;42987;52.916;6.542;2023-12-29T00:38:44;9.90;;;2.70;;
57107;SDS011;42987;52.916;6.542;2023-12-29T00:41:10;10.52;;;3.00;;
57107;SDS011;42987;52.916;6.542;2023-12-29T00:43:35;11.32;;;2.40;;
57107;SDS011;42987;52.916;6.542;2023-12-29T00:46:02;13.88;;;3.53;;
57107;SDS011;42987;52.916;6.542;2023-12-29T00:48:28;11.35;;;2.78;;
57107;SDS011;42987;52.916;6.542;2023-12-29T00:50:58;10.32;;;3.13;;
57107;SDS011;42987;52.916;6.542;2023-12-29T00:53:25;12.80;;;3.08;;
57107;SDS011;42987;52.916;6.542;2023-12-29T00:55:51;14.02;;;3.65;;
57107;SDS011;42987;52.916;6.542;2023-12-29T00:58:17;10.77;;;3.00;;
57107;SDS011;42987;52.916;6.542;2023-12-29T01:00:42;12.15;;;3.53;;
57107;SDS011;42987;52.916;6.542;2023-12-29T01:03:08;12.70;;;3.38;;
57107;SDS011;42987;52.916;6.542;2023-12-29T01:05:36;13.90;;;3.58;;
57107;SDS011;42987;52.916;6.542;2023-12-29T01:08:02;14.90;;;3.22;;
57107;SDS011;42987;52.916;6.542;2023-12-29T01:10:28;13.85;;;4.10;;
57107;SDS011;42987;52.916;6.542;2023-12-29T01:12:54;15.48;;;3.80;;
57107;SDS011;42987;52.916;6.542;2023-12-29T01:15:19;15.05;;;3.45;;
57107;SDS011;42987;52.916;6.542;2023-12-29T01:17:45;15.07;;;3.90;;
57107;SDS011;42987;52.916;6.542;2023-12-29T01:20:11;16.95;;;4.20;;
57107;SDS011;42987;52.916;6.542;2023-12-29T01:22:37;12.30;;;3.60;;
57107;SDS011;42987;52.916;6.542;2023-12-29T01:25:03;14.38;;;4.05;;
57107;SDS011;42987;52.916;6.542;2023-12-29T01:27:29;15.18;;;4.03;;
57107;SDS011;42987;52.916;6.542;2023-12-29T01:29:55;15.32;;;4.40;;
57107;SDS011;42987;52.916;6.542;2023-12-29T01:32:21;15.57;;;4.53;;
57107;SDS011;42987;52.916;6.542;2023-12-29T01:34:47;15.85;;;4.95;;
57107;SDS011;42987;52.916;6.542;2023-12-29T01:37:12;18.02;;;4.60;;
57107;SDS011;42987;52.916;6.542;2023-12-29T01:39:38;13.07;;;4.05;;
57107;SDS011;42987;52.916;6.542;2023-12-29T01:42:05;19.70;;;4.75;;
57107;SDS011;42987;52.916;6.542;2023-12-29T01:44:32;17.88;;;4.00;;
57107;SDS011;42987;52.916;6.542;2023-12-29T01:46:58;13.93;;;4.15;;
57107;SDS011;42987;52.916;6.542;2023-12-29T01:49:28;17.08;;;4.05;;
57107;SDS011;42987;52.916;6.542;2023-12-29T01:51:56;15.75;;;4.85;;
57107;SDS011;42987;52.916;6.542;2023-12-29T01:54:23;12.45;;;4.05;;
57107;SDS011;42987;52.916;6.542;2023-12-29T01:56:51;17.08;;;4.20;;
57107;SDS011;42987;52.916;6.542;2023-12-29T01:59:20;16.55;;;4.43;;
57107;SDS011;42987;52.916;6.542;2023-12-29T02:01:50;14.38;;;4.30;;
57107;SDS011;42987;52.916;6.542;2023-12-29T02:04:15;16.40;;;5.07;;
57107;SDS011;42987;52.916;6.542;2023-12-29T02:06:43;13.85;;;4.38;;
57107;SDS011;42987;52.916;6.542;2023-12-29T02:09:09;14.90;;;4.60;;
57107;SDS011;42987;52.916;6.542;2023-12-29T02:11:37;14.75;;;4.93;;
57107;SDS011;42987;52.916;6.542;2023-12-29T02:14:03;13.70;;;4.60;;
57107;SDS011;42987;52.916;6.542;2023-12-29T02:19:04;21.88;;;5.28;;
57107;SDS011;42987;52.916;6.542;2023-12-29T02:21:40;19.95;;;5.35;;
57107;SDS011;42987;52.916;6.542;2023-12-29T02:24:08;18.13;;;5.47;;
57107;SDS011;42987;52.916;6.542;2023-12-29T02:26:34;17.70;;;5.10;;
57107;SDS011;42987;52.916;6.542;2023-12-29T02:29:02;15.55;;;5.03;;
57107;SDS011;42987;52.916;6.542;2023-12-29T02:31:33;18.33;;;5.07;;
57107;SDS011;42987;52.916;6.542;2023-12-29T02:34:02;20.17;;;4.53;;
57107;SDS011;42987;52.916;6.542;2023-12-29T02:36:31;20.25;;;6.38;;
57107;SDS011;42987;52.916;6.542;2023-12-29T02:38:58;16.17;;;5.60;;
57107;SDS011;42987;52.916;6.542;2023-12-29T02:41:24;19.63;;;4.97;;
57107;SDS011;42987;52.916;6.542;2023-12-29T02:43:50;21.75;;;5.65;;
57107;SDS011;42987;52.916;6.542;2023-12-29T02:46:18;18.15;;;5.45;;
57107;SDS011;42987;52.916;6.542;2023-12-29T02:48:43;23.70;;;6.70;;
57107;SDS011;42987;52.916;6.542;2023-12-29T02:51:09;16.60;;;4.22;;
57107;SDS011;42987;52.916;6.542;2023-12-29T02:53:35;12.65;;;3.72;;
57107;SDS011;42987;52.916;6.542;2023-12-29T02:56:00;9.23;;;2.80;;
57107;SDS011;42987;52.916;6.542;2023-12-29T02:58:26;11.05;;;2.40;;
57107;SDS011;42987;52.916;6.542;2023-12-29T03:00:52;9.27;;;2.55;;
57107;SDS011;42987;52.916;6.542;2023-12-29T03:03:18;13.50;;;3.47;;
57107;SDS011;42987;52.916;6.542;2023-12-29T03:05:44;17.90;;;4.45;;
57107;SDS011;42987;52.916;6.542;2023-12-29T03:08:10;17.20;;;4.78;;
57107;SDS011;42987;52.916;6.542;2023-12-29T03:10:35;19.90;;;5.63;;
57107;SDS011;42987;52.916;6.542;2023-12-29T03:13:01;17.10;;;5.60;;
57107;SDS011;42987;52.916;6.542;2023-12-29T03:15:29;14.50;;;5.15;;
57107;SDS011;42987;52.916;6.542;2023-12-29T03:17:55;21.08;;;5.93;;
57107;SDS011;42987;52.916;6.542;2023-12-29T03:20:20;20.17;;;5.70;;
57107;SDS011;42987;52.916;6.542;2023-12-29T03:22:46;19.05;;;5.40;;
57107;SDS011;42987;52.916;6.542;2023-12-29T03:25:12;23.05;;;6.05;;
57107;SDS011;42987;52.916;6.542;2023-12-29T03:27:38;20.55;;;6.38;;
57107;SDS011;42987;52.916;6.542;2023-12-29T03:30:03;16.42;;;5.45;;
57107;SDS011;42987;52.916;6.542;2023-12-29T03:32:30;19.20;;;5.72;;
57107;SDS011;42987;52.916;6.542;2023-12-29T03:34:55;19.23;;;5.32;;
57107;SDS011;42987;52.916;6.542;2023-12-29T03:37:21;19.42;;;5.63;;
57107;SDS011;42987;52.916;6.542;2023-12-29T03:39:47;16.55;;;5.72;;
57107;SDS011;42987;52.916;6.542;2023-12-29T03:42:13;17.70;;;5.32;;
57107;SDS011;42987;52.916;6.542;2023-12-29T03:44:38;18.17;;;5.22;;
57107;SDS011;42987;52.916;6.542;2023-12-29T03:47:04;18.13;;;5.53;;
57107;SDS011;42987;52.916;6.542;2023-12-29T03:49:30;19.75;;;4.75;;
57107;SDS011;42987;52.916;6.542;2023-12-29T03:51:56;18.23;;;5.28;;
57107;SDS011;42987;52.916;6.542;2023-12-29T03:54:21;22.58;;;5.28;;
57107;SDS011;42987;52.916;6.542;2023-12-29T03:56:47;16.90;;;5.15;;
57107;SDS011;42987;52.916;6.542;2023-12-29T03:59:13;14.65;;;4.38;;
57107;SDS011;42987;52.916;6.542;2023-12-29T04:01:39;20.70;;;5.40;;
57107;SDS011;42987;52.916;6.542;2023-12-29T04:04:04;19.83;;;5.55;;
57107;SDS011;42987;52.916;6.542;2023-12-29T04:06:30;18.77;;;5.55;;
57107;SDS011;42987;52.916;6.542;2023-12-29T04:08:56;24.65;;;6.18;;
57107;SDS011;42987;52.916;6.542;2023-12-29T04:11:22;17.15;;;5.13;;
57107;SDS011;42987;52.916;6.542;2023-12-29T04:13:48;20.20;;;5.55;;
57107;SDS011;42987;52.916;6.542;2023-12-29T04:16:14;20.35;;;5.70;;
57107;SDS011;42987;52.916;6.542;2023-12-29T04:18:40;20.90;;;5.30;;
57107;SDS011;42987;52.916;6.542;2023-12-29T04:21:06;18.70;;;4.88;;
57107;SDS011;42987;52.916;6.542;2023-12-29T04:23:34;20.58;;;4.80;;
57107;SDS011;42987;52.916;6.542;2023-12-29T04:25:59;25.77;;;5.80;;
57107;SDS011;42987;52.916;6.542;2023-12-29T04:28:28;21.27;;;5.35;;
57107;SDS011;42987;52.916;6.542;2023-12-29T04:30:54;22.35;;;5.78;;
57107;SDS011;42987;52.916;6.542;2023-12-29T04:33:20;23.23;;;5.53;;
57107;SDS011;42987;52.916;6.542;2023-12-29T04:35:46;21.13;;;5.35;;
57107;SDS011;42987;52.916;6.542;2023-12-29T04:38:11;25.50;;;6.05;;
57107;SDS011;42987;52.916;6.542;2023-12-29T04:40:37;23.30;;;5.60;;
57107;SDS011;42987;52.916;6.542;2023-12-29T04:43:03;25.33;;;5.57;;
57107;SDS011;42987;52.916;6.542;2023-12-29T04:45:29;24.42;;;5.80;;
57107;SDS011;42987;52.916;6.542;2023-12-29T04:47:58;22.42;;;5.13;;
57107;SDS011;42987;52.916;6.542;2023-12-29T04:50:24;23.30;;;5.50;;
57107;SDS011;42987;52.916;6.542;2023-12-29T04:52:49;23.08;;;5.72;;
57107;SDS011;42987;52.916;6.542;2023-12-29T04:55:15;23.90;;;5.55;;
57107;SDS011;42987;52.916;6.542;2023-12-29T04:57:41;27.15;;;5.15;;
57107;SDS011;42987;52.916;6.542;2023-12-29T05:00:07;19.95;;;4.97;;
57107;SDS011;42987;52.916;6.542;2023-12-29T05:02:33;20.60;;;4.97;;
57107;SDS011;42987;52.916;6.542;2023-12-29T05:05:02;23.85;;;5.53;;
57107;SDS011;42987;52.916;6.542;2023-12-29T05:07:28;27.70;;;6.38;;
57107;SDS011;42987;52.916;6.542;2023-12-29T05:09:54;22.65;;;4.47;;
57107;SDS011;42987;52.916;6.542;2023-12-29T05:12:19;22.45;;;5.00;;
57107;SDS011;42987;52.916;6.542;2023-12-29T05:14:45;23.30;;;4.85;;
57107;SDS011;42987;52.916;6.542;2023-12-29T05:17:11;20.98;;;5.55;;
57107;SDS011;42987;52.916;6.542;2023-12-29T05:19:37;21.73;;;4.80;;
57107;SDS011;42987;52.916;6.542;2023-12-29T05:22:03;22.67;;;5.47;;
57107;SDS011;42987;52.916;6.542;2023-12-29T05:24:28;19.42;;;4.72;;
57107;SDS011;42987;52.916;6.542;2023-12-29T05:26:54;20.52;;;5.45;;
57107;SDS011;42987;52.916;6.542;2023-12-29T05:29:20;21.17;;;4.75;;
57107;SDS011;42987;52.916;6.542;2023-12-29T05:31:49;23.48;;;5.10;;
57107;SDS011;42987;52.916;6.542;2023-12-29T05:34:15;19.67;;;5.07;;
57107;SDS011;42987;52.916;6.542;2023-12-29T05:36:40;21.83;;;5.28;;
57107;SDS011;42987;52.916;6.542;2023-12-29T05:39:07;22.90;;;4.95;;
57107;SDS011;42987;52.916;6.542;2023-12-29T05:41:33;22.92;;;4.95;;
57107;SDS011;42987;52.916;6.542;2023-12-29T05:43:58;23.05;;;5.18;;
57107;SDS011;42987;52.916;6.542;2023-12-29T05:46:25;26.65;;;4.82;;
57107;SDS011;42987;52.916;6.542;2023-12-29T05:48:51;22.80;;;4.45;;
57107;SDS011;42987;52.916;6.542;2023-12-29T05:51:17;17.67;;;4.10;;
57107;SDS011;42987;52.916;6.542;2023-12-29T05:53:43;16.08;;;3.63;;
57107;SDS011;42987;52.916;6.542;2023-12-29T05:56:11;19.45;;;4.30;;
57107;SDS011;42987;52.916;6.542;2023-12-29T05:58:40;20.40;;;4.95;;
57107;SDS011;42987;52.916;6.542;2023-12-29T06:01:07;17.63;;;4.00;;
57107;SDS011;42987;52.916;6.542;2023-12-29T06:03:32;21.50;;;4.63;;
57107;SDS011;42987;52.916;6.542;2023-12-29T06:05:58;19.48;;;4.65;;
57107;SDS011;42987;52.916;6.542;2023-12-29T06:08:24;19.65;;;4.22;;
57107;SDS011;42987;52.916;6.542;2023-12-29T06:10:51;22.45;;;4.80;;
57107;SDS011;42987;52.916;6.542;2023-12-29T06:13:16;21.52;;;4.45;;
57107;SDS011;42987;52.916;6.542;2023-12-29T06:15:42;23.13;;;5.03;;
57107;SDS011;42987;52.916;6.542;2023-12-29T06:18:08;22.38;;;4.93;;
57107;SDS011;42987;52.916;6.542;2023-12-29T06:20:34;22.88;;;5.10;;
57107;SDS011;42987;52.916;6.542;2023-12-29T06:22:59;23.17;;;6.03;;
57107;SDS011;42987;52.916;6.542;2023-12-29T06:25:26;22.60;;;4.97;;
57107;SDS011;42987;52.916;6.542;2023-12-29T06:27:51;23.83;;;5.47;;
57107;SDS011;42987;52.916;6.542;2023-12-29T06:30:18;29.15;;;5.88;;
57107;SDS011;42987;52.916;6.542;2023-12-29T06:32:44;23.70;;;5.85;;
57107;SDS011;42987;52.916;6.542;2023-12-29T06:35:10;24.30;;;7.03;;
57107;SDS011;42987;52.916;6.542;2023-12-29T06:37:36;28.10;;;5.93;;
57107;SDS011;42987;52.916;6.542;2023-12-29T06:40:04;27.35;;;5.75;;
57107;SDS011;42987;52.916;6.542;2023-12-29T06:42:31;26.98;;;6.22;;
57107;SDS011;42987;52.916;6.542;2023-12-29T06:44:57;28.88;;;5.85;;
57107;SDS011;42987;52.916;6.542;2023-12-29T06:47:23;26.73;;;6.40;;
57107;SDS011;42987;52.916;6.542;2023-12-29T06:49:49;30.92;;;6.25;;
57107;SDS011;42987;52.916;6.542;2023-12-29T06:52:15;29.75;;;6.88;;
57107;SDS011;42987;52.916;6.542;2023-12-29T06:54:42;25.50;;;6.38;;
57107;SDS011;42987;52.916;6.542;2023-12-29T06:57:08;30.55;;;5.88;;
57107;SDS011;42987;52.916;6.542;2023-12-29T06:59:33;32.70;;;7.30;;
57107;SDS011;42987;52.916;6.542;2023-12-29T07:01:59;27.65;;;6.30;;
57107;SDS011;42987;52.916;6.542;2023-12-29T07:04:25;29.35;;;6.53;;
57107;SDS011;42987;52.916;6.542;2023-12-29T07:06:51;29.70;;;6.80;;
57107;SDS011;42987;52.916;6.542;2023-12-29T07:09:17;31.55;;;7.38;;
57107;SDS011;42987;52.916;6.542;2023-12-29T07:11:47;32.92;;;6.72;;
57107;SDS011;42987;52.916;6.542;2023-12-29T07:14:13;35.90;;;7.35;;
57107;SDS011;42987;52.916;6.542;2023-12-29T07:16:39;30.63;;;6.70;;
57107;SDS011;42987;52.916;6.542;2023-12-29T07:19:05;35.35;;;7.05;;
57107;SDS011;42987;52.916;6.542;2023-12-29T07:21:31;29.90;;;6.53;;
57107;SDS011;42987;52.916;6.542;2023-12-29T07:23:56;31.48;;;6.97;;
57107;SDS011;42987;52.916;6.542;2023-12-29T07:26:22;34.17;;;6.40;;
57107;SDS011;42987;52.916;6.542;2023-12-29T07:28:48;43.38;;;7.40;;
57107;SDS011;42987;52.916;6.542;2023-12-29T07:31:19;39.10;;;7.95;;
57107;SDS011;42987;52.916;6.542;2023-12-29T07:33:46;38.38;;;8.00;;
57107;SDS011;42987;52.916;6.542;2023-12-29T07:36:12;32.90;;;6.53;;
57107;SDS011;42987;52.916;6.542;2023-12-29T07:38:37;36.10;;;6.85;;
57107;SDS011;42987;52.916;6.542;2023-12-29T07:41:03;43.97;;;8.45;;
57107;SDS011;42987;52.916;6.542;2023-12-29T07:43:29;48.28;;;8.63;;
57107;SDS011;42987;52.916;6.542;2023-12-29T07:45:55;49.72;;;9.00;;
57107;SDS011;42987;52.916;6.542;2023-12-29T07:48:21;36.58;;;7.13;;
57107;SDS011;42987;52.916;6.542;2023-12-29T07:50:47;44.05;;;7.68;;
57107;SDS011;42987;52.916;6.542;2023-12-29T07:53:13;33.65;;;6.68;;
57107;SDS011;42987;52.916;6.542;2023-12-29T07:55:39;40.65;;;7.65;;
57107;SDS011;42987;52.916;6.542;2023-12-29T07:58:05;34.70;;;6.70;;
57107;SDS011;42987;52.916;6.542;2023-12-29T08:00:32;34.88;;;6.82;;
57107;SDS011;42987;52.916;6.542;2023-12-29T08:02:58;33.58;;;7.35;;
57107;SDS011;42987;52.916;6.542;2023-12-29T08:05:24;32.95;;;6.93;;
57107;SDS011;42987;52.916;6.542;2023-12-29T08:07:53;38.40;;;7.57;;
57107;SDS011;42987;52.916;6.542;2023-12-29T08:10:20;34.10;;;6.93;;
57107;SDS011;42987;52.916;6.542;2023-12-29T08:12:45;31.95;;;7.05;;
57107;SDS011;42987;52.916;6.542;2023-12-29T08:15:11;29.85;;;6.70;;
57107;SDS011;42987;52.916;6.542;2023-12-29T08:17:37;32.00;;;6.35;;
57107;SDS011;42987;52.916;6.542;2023-12-29T08:20:03;25.67;;;6.15;;
57107;SDS011;42987;52.916;6.542;2023-12-29T08:22:30;25.40;;;5.35;;
57107;SDS011;42987;52.916;6.542;2023-12-29T08:24:57;32.20;;;6.22;;
57107;SDS011;42987;52.916;6.542;2023-12-29T08:27:24;32.08;;;7.15;;
57107;SDS011;42987;52.916;6.542;2023-12-29T08:29:53;33.92;;;6.93;;
57107;SDS011;42987;52.916;6.542;2023-12-29T08:32:19;28.25;;;5.78;;
57107;SDS011;42987;52.916;6.542;2023-12-29T08:34:46;30.05;;;6.53;;
57107;SDS011;42987;52.916;6.542;2023-12-29T08:37:11;29.63;;;5.97;;
57107;SDS011;42987;52.916;6.542;2023-12-29T08:39:40;29.10;;;6.30;;
57107;SDS011;42987;52.916;6.542;2023-12-29T08:42:06;27.05;;;6.00;;
57107;SDS011;42987;52.916;6.542;2023-12-29T08:44:32;30.42;;;5.90;;
57107;SDS011;42987;52.916;6.542;2023-12-29T08:46:58;23.27;;;5.57;;
57107;SDS011;42987;52.916;6.542;2023-12-29T08:49:23;28.30;;;5.30;;
57107;SDS011;42987;52.916;6.542;2023-12-29T08:51:49;26.30;;;6.22;;
57107;SDS011;42987;52.916;6.542;2023-12-29T08:54:15;23.02;;;5.63;;
57107;SDS011;42987;52.916;6.542;2023-12-29T08:56:41;30.80;;;6.15;;
57107;SDS011;42987;52.916;6.542;2023-12-29T08:59:06;25.48;;;5.93;;
57107;SDS011;42987;52.916;6.542;2023-12-29T09:01:32;22.65;;;6.25;;
57107;SDS011;42987;52.916;6.542;2023-12-29T09:03:58;26.70;;;5.90;;
57107;SDS011;42987;52.916;6.542;2023-12-29T09:06:25;20.60;;;4.53;;
57107;SDS011;42987;52.916;6.542;2023-12-29T09:08:51;22.02;;;4.93;;
57107;SDS011;42987;52.916;6.542;2023-12-29T09:11:17;21.33;;;4.80;;
57107;SDS011;42987;52.916;6.542;2023-12-29T09:13:46;25.95;;;5.20;;
57107;SDS011;42987;52.916;6.542;2023-12-29T09:16:11;26.15;;;5.97;;
57107;SDS011;42987;52.916;6.542;2023-12-29T09:18:37;22.45;;;5.60;;
57107;SDS011;42987;52.916;6.542;2023-12-29T09:21:03;22.40;;;5.43;;
57107;SDS011;42987;52.916;6.542;2023-12-29T09:23:29;27.88;;;6.47;;
57107;SDS011;42987;52.916;6.542;2023-12-29T09:25:57;21.65;;;5.72;;
57107;SDS011;42987;52.916;6.542;2023-12-29T09:28:23;23.25;;;5.95;;
57107;SDS011;42987;52.916;6.542;2023-12-29T09:30:49;21.95;;;5.50;;
57107;SDS011;42987;52.916;6.542;2023-12-29T09:33:15;24.17;;;5.75;;
57107;SDS011;42987;52.916;6.542;2023-12-29T09:35:40;27.10;;;5.75;;
57107;SDS011;42987;52.916;6.542;2023-12-29T09:38:06;21.75;;;5.45;;
57107;SDS011;42987;52.916;6.542;2023-12-29T09:40:35;25.92;;;5.03;;
57107;SDS011;42987;52.916;6.542;2023-12-29T09:43:01;20.67;;;5.63;;
57107;SDS011;42987;52.916;6.542;2023-12-29T09:45:29;20.95;;;5.60;;
57107;SDS011;42987;52.916;6.542;2023-12-29T09:47:57;19.70;;;4.55;;
57107;SDS011;42987;52.916;6.542;2023-12-29T09:50:26;23.13;;;5.57;;
57107;SDS011;42987;52.916;6.542;2023-12-29T09:52:52;20.50;;;4.28;;
57107;SDS011;42987;52.916;6.542;2023-12-29T09:55:18;25.95;;;5.63;;
57107;SDS011;42987;52.916;6.542;2023-12-29T09:57:46;20.33;;;5.22;;
57107;SDS011;42987;52.916;6.542;2023-12-29T10:00:13;21.50;;;4.35;;
57107;SDS011;42987;52.916;6.542;2023-12-29T10:02:41;21.70;;;4.53;;
57107;SDS011;42987;52.916;6.542;2023-12-29T10:05:07;19.08;;;4.65;;
57107;SDS011;42987;52.916;6.542;2023-12-29T10:07:37;18.42;;;4.20;;
57107;SDS011;42987;52.916;6.542;2023-12-29T10:10:05;23.63;;;5.13;;
57107;SDS011;42987;52.916;6.542;2023-12-29T10:12:31;19.77;;;4.45;;
57107;SDS011;42987;52.916;6.542;2023-12-29T10:17:43;19.60;;;4.72;;
57107;SDS011;42987;52.916;6.542;2023-12-29T10:26:05;19.35;;;4.43;;
57107;SDS011;42987;52.916;6.542;2023-12-29T10:28:35;20.38;;;4.38;;
57107;SDS011;42987;52.916;6.542;2023-12-29T10:31:01;19.40;;;5.07;;
57107;SDS011;42987;52.916;6.542;2023-12-29T10:33:27;20.15;;;4.40;;
57107;SDS011;42987;52.916;6.542;2023-12-29T10:36:04;17.67;;;4.03;;
57107;SDS011;42987;52.916;6.542;2023-12-29T10:38:32;19.05;;;3.92;;
57107;SDS011;42987;52.916;6.542;2023-12-29T10:43:39;16.05;;;3.38;;
57107;SDS011;42987;52.916;6.542;2023-12-29T10:46:06;15.93;;;3.60;;
57107;SDS011;42987;52.916;6.542;2023-12-29T10:48:36;14.93;;;3.30;;
57107;SDS011;42987;52.916;6.542;2023-12-29T10:51:03;14.68;;;2.80;;
57107;SDS011;42987;52.916;6.542;2023-12-29T10:53:38;14.40;;;3.20;;
57107;SDS011;42987;52.916;6.542;2023-12-29T10:56:04;16.95;;;3.58;;
57107;SDS011;42987;52.916;6.542;2023-12-29T10:58:35;18.88;;;3.58;;
57107;SDS011;42987;52.916;6.542;2023-12-29T11:01:02;15.80;;;3.30;;
57107;SDS011;42987;52.916;6.542;2023-12-29T11:03:40;14.45;;;3.17;;
57107;SDS011;42987;52.916;6.542;2023-12-29T11:06:06;19.27;;;4.25;;
57107;SDS011;42987;52.916;6.542;2023-12-29T11:08:31;19.27;;;3.88;;
57107;SDS011;42987;52.916;6.542;2023-12-29T11:11:00;14.70;;;3.28;;
57107;SDS011;42987;52.916;6.542;2023-12-29T11:13:27;20.05;;;4.30;;
57107;SDS011;42987;52.916;6.542;2023-12-29T11:15:55;21.08;;;5.07;;
57107;SDS011;42987;52.916;6.542;2023-12-29T11:18:22;20.60;;;4.60;;
57107;SDS011;42987;52.916;6.542;2023-12-29T11:20:48;14.52;;;3.30;;
57107;SDS011;42987;52.916;6.542;2023-12-29T11:23:14;16.05;;;3.25;;
57107;SDS011;42987;52.916;6.542;2023-12-29T11:25:43;19.63;;;4.07;;
57107;SDS011;42987;52.916;6.542;2023-12-29T11:28:13;17.70;;;3.60;;
57107;SDS011;42987;52.916;6.542;2023-12-29T11:30:39;12.25;;;3.00;;
57107;SDS011;42987;52.916;6.542;2023-12-29T11:33:10;21.58;;;4.05;;
57107;SDS011;42987;52.916;6.542;2023-12-29T11:35:43;18.42;;;3.85;;
57107;SDS011;42987;52.916;6.542;2023-12-29T11:38:18;17.33;;;4.20;;
57107;SDS011;42987;52.916;6.542;2023-12-29T11:43:24;15.07;;;3.70;;
57107;SDS011;42987;52.916;6.542;2023-12-29T11:45:51;15.05;;;3.30;;
57107;SDS011;42987;52.916;6.542;2023-12-29T11:51:27;17.50;;;3.75;;
57107;SDS011;42987;52.916;6.542;2023-12-29T11:54:01;16.13;;;3.85;;
57107;SDS011;42987;52.916;6.542;2023-12-29T11:56:31;14.25;;;3.65;;
57107;SDS011;42987;52.916;6.542;2023-12-29T12:01:49;14.43;;;2.97;;
57107;SDS011;42987;52.916;6.542;2023-12-29T12:07:02;11.40;;;2.35;;
57107;SDS011;42987;52.916;6.542;2023-12-29T12:09:30;11.07;;;2.25;;
57107;SDS011;42987;52.916;6.542;2023-12-29T12:11:56;9.90;;;2.30;;
57107;SDS011;42987;52.916;6.542;2023-12-29T12:17:10;11.60;;;2.70;;
57107;SDS011;42987;52.916;6.542;2023-12-29T12:19:36;13.13;;;2.92;;
57107;SDS011;42987;52.916;6.542;2023-12-29T12:22:03;10.45;;;2.85;;
57107;SDS011;42987;52.916;6.542;2023-12-29T12:24:31;13.10;;;3.13;;
57107;SDS011;42987;52.916;6.542;2023-12-29T12:27:00;11.80;;;2.60;;
57107;SDS011;42987;52.916;6.542;2023-12-29T12:29:27;14.32;;;3.35;;
57107;SDS011;42987;52.916;6.542;2023-12-29T12:31:54;13.93;;;2.97;;
57107;SDS011;42987;52.916;6.542;2023-12-29T12:34:21;14.77;;;3.25;;
57107;SDS011;42987;52.916;6.542;2023-12-29T12:36:48;16.75;;;3.55;;
57107;SDS011;42987;52.916;6.542;2023-12-29T12:39:15;14.93;;;3.78;;
57107;SDS011;42987;52.916;6.542;2023-12-29T12:41:41;18.90;;;3.83;;
57107;SDS011;42987;52.916;6.542;2023-12-29T12:46:39;16.98;;;3.40;;
57107;SDS011;42987;52.916;6.542;2023-12-29T12:49:08;13.50;;;3.10;;
57107;SDS011;42987;52.916;6.542;2023-12-29T12:51:34;11.15;;;2.75;;
57107;SDS011;42987;52.916;6.542;2023-12-29T12:54:00;16.30;;;3.40;;
57107;SDS011;42987;52.916;6.542;2023-12-29T12:56:26;15.18;;;3.03;;
57107;SDS011;42987;52.916;6.542;2023-12-29T12:58:56;12.65;;;2.97;;
57107;SDS011;42987;52.916;6.542;2023-12-29T13:01:23;13.20;;;3.07;;
57107;SDS011;42987;52.916;6.542;2023-12-29T13:03:50;14.70;;;2.88;;
57107;SDS011;42987;52.916;6.542;2023-12-29T13:06:16;13.75;;;3.55;;
57107;SDS011;42987;52.916;6.542;2023-12-29T13:08:43;13.02;;;2.70;;
57107;SDS011;42987;52.916;6.542;2023-12-29T13:11:09;14.50;;;3.25;;
57107;SDS011;42987;52.916;6.542;2023-12-29T13:13:41;14.63;;;3.97;;
57107;SDS011;42987;52.916;6.542;2023-12-29T13:16:08;13.65;;;3.30;;
57107;SDS011;42987;52.916;6.542;2023-12-29T13:18:34;12.70;;;2.95;;
57107;SDS011;42987;52.916;6.542;2023-12-29T13:21:00;19.13;;;3.50;;
57107;SDS011;42987;52.916;6.542;2023-12-29T13:23:27;15.57;;;3.15;;
57107;SDS011;42987;52.916;6.542;2023-12-29T13:25:54;14.18;;;2.92;;
57107;SDS011;42987;52.916;6.542;2023-12-29T13:28:22;12.48;;;3.15;;
57107;SDS011;42987;52.916;6.542;2023-12-29T13:30:48;15.27;;;4.18;;
57107;SDS011;42987;52.916;6.542;2023-12-29T13:33:59;13.52;;;3.05;;
57107;SDS011;42987;52.916;6.542;2023-12-29T13:36:38;14.45;;;3.45;;
57107;SDS011;42987;52.916;6.542;2023-12-29T13:39:21;15.23;;;3.13;;
57107;SDS011;42987;52.916;6.542;2023-12-29T13:42:00;13.38;;;3.22;;
57107;SDS011;42987;52.916;6.542;2023-12-29T13:44:28;13.38;;;3.60;;
57107;SDS011;42987;52.916;6.542;2023-12-29T13:46:54;13.40;;;3.63;;
57107;SDS011;42987;52.916;6.542;2023-12-29T13:49:25;14.38;;;3.28;;
57107;SDS011;42987;52.916;6.542;2023-12-29T13:51:51;18.58;;;4.38;;
57107;SDS011;42987;52.916;6.542;2023-12-29T13:54:17;14.10;;;2.80;;
57107;SDS011;42987;52.916;6.542;2023-12-29T13:56:50;19.10;;;4.15;;
57107;SDS011;42987;52.916;6.542;2023-12-29T13:59:18;16.38;;;3.17;;
57107;SDS011;42987;52.916;6.542;2023-12-29T14:01:53;15.60;;;3.42;;
57107;SDS011;42987;52.916;6.542;2023-12-29T14:04:19;12.55;;;3.15;;
57107;SDS011;42987;52.916;6.542;2023-12-29T14:09:23;14.82;;;3.45;;
57107;SDS011;42987;52.916;6.542;2023-12-29T14:11:49;16.35;;;4.25;;
57107;SDS011;42987;52.916;6.542;2023-12-29T14:14:23;15.55;;;3.20;;
57107;SDS011;42987;52.916;6.542;2023-12-29T14:16:50;15.13;;;3.67;;
57107;SDS011;42987;52.916;6.542;2023-12-29T14:19:17;14.65;;;3.50;;
57107;SDS011;42987;52.916;6.542;2023-12-29T14:21:45;16.27;;;3.78;;
57107;SDS011;42987;52.916;6.542;2023-12-29T14:24:15;16.13;;;3.63;;
57107;SDS011;42987;52.916;6.542;2023-12-29T14:29:20;13.65;;;3.10;;
57107;SDS011;42987;52.916;6.542;2023-12-29T14:31:46;16.92;;;3.20;;
57107;SDS011;42987;52.916;6.542;2023-12-29T14:34:13;15.45;;;3.30;;
57107;SDS011;42987;52.916;6.542;2023-12-29T14:36:39;16.13;;;3.53;;
57107;SDS011;42987;52.916;6.542;2023-12-29T14:39:06;16.60;;;3.50;;
57107;SDS011;42987;52.916;6.542;2023-12-29T14:41:32;13.18;;;3.20;;
57107;SDS011;42987;52.916;6.542;2023-12-29T14:43:58;19.35;;;3.78;;
57107;SDS011;42987;52.916;6.542;2023-12-29T14:46:25;14.15;;;3.25;;
57107;SDS011;42987;52.916;6.542;2023-12-29T14:48:51;16.60;;;2.85;;
57107;SDS011;42987;52.916;6.542;2023-12-29T14:51:18;18.65;;;3.85;;
57107;SDS011;42987;52.916;6.542;2023-12-29T14:53:44;10.18;;;2.53;;
57107;SDS011;42987;52.916;6.542;2023-12-29T14:56:12;17.38;;;3.08;;
57107;SDS011;42987;52.916;6.542;2023-12-29T14:58:38;20.20;;;3.20;;
57107;SDS011;42987;52.916;6.542;2023-12-29T15:01:05;13.15;;;3.00;;
57107;SDS011;42987;52.916;6.542;2023-12-29T15:03:31;16.70;;;3.85;;
57107;SDS011;42987;52.916;6.542;2023-12-29T15:05:57;14.68;;;3.60;;
57107;SDS011;42987;52.916;6.542;2023-12-29T15:08:23;17.80;;;3.40;;
57107;SDS011;42987;52.916;6.542;2023-12-29T15:10:49;15.63;;;3.88;;